Time;durP1;ratioP1;P1;durP2;ratioP2;P2;SDS_P1;SDS_P2;PMS_P1;PMS_P2;Temp;Humidity;BMP_temperature;BMP_pressure;BME280_temperature;BME280_humidity;BME280_pressure;Samples;Min_cycle;Max_cycle;Signal;HPM_P1;HPM_P2
2022/05/03 00:02:00;;;;;;;6.35;4.10;;;12.20;99.90;;;;;;5034167;28;20266;-76
2022/05/03 00:04:46;;;;;;;7.70;4.40;;;12.30;99.90;;;;;;5034457;28;20192;-76
2022/05/03 00:07:20;;;;;;;14.35;3.78;;;12.10;99.90;;;;;;5027384;28;20544;-76
2022/05/03 00:10:06;;;;;;;4.93;4.03;;;12.00;99.90;;;;;;5034509;28;20282;-77
2022/05/03 00:12:51;;;;;;;6.53;4.65;;;12.00;99.90;;;;;;5034498;28;20164;-75
2022/05/03 00:15:20;;;;;;;6.00;4.50;;;11.80;99.90;;;;;;5034493;28;20211;-76
2022/05/03 00:17:48;;;;;;;7.35;4.05;;;11.80;99.90;;;;;;5034619;28;20152;-82
2022/05/03 00:20:17;;;;;;;4.50;4.10;;;12.00;99.90;;;;;;5050078;28;20198;-76
2022/05/03 00:22:44;;;;;;;4.38;4.00;;;11.90;99.90;;;;;;5034689;28;20199;-82
2022/05/03 00:25:10;;;;;;;4.70;4.25;;;11.90;99.90;;;;;;5034541;28;20195;-76
2022/05/03 00:27:36;;;;;;;7.03;4.97;;;11.80;99.90;;;;;;5034838;28;20168;-76
2022/05/03 00:30:03;;;;;;;5.35;4.20;;;11.70;99.90;;;;;;5034458;28;20243;-77
2022/05/03 00:32:29;;;;;;;4.60;3.90;;;11.90;99.90;;;;;;5034293;28;20156;-77
2022/05/03 00:35:01;;;;;;;4.93;4.53;;;12.00;99.90;;;;;;5034600;28;20195;-83
2022/05/03 00:37:27;;;;;;;7.22;4.55;;;11.90;99.90;;;;;;5034580;28;20168;-76
2022/05/03 00:39:52;;;;;;;5.80;4.53;;;11.80;99.90;;;;;;5034110;28;20168;-76
2022/05/03 00:42:19;;;;;;;6.15;4.60;;;11.90;99.90;;;;;;5033964;28;20184;-80
2022/05/03 00:45:10;;;;;;;8.07;4.50;;;12.10;99.90;;;;;;5033913;28;20550;-76
2022/05/03 00:47:52;;;;;;;8.13;4.72;;;11.90;99.90;;;;;;5034061;28;20525;-76
2022/05/03 00:50:18;;;;;;;5.53;3.85;;;11.60;99.90;;;;;;5033980;28;20195;-76
2022/05/03 00:52:58;;;;;;;4.18;3.88;;;11.70;99.90;;;;;;5033969;28;20174;-76
2022/05/03 00:55:30;;;;;;;8.90;4.55;;;11.80;99.90;;;;;;5033648;28;20191;-76
2022/05/03 00:58:19;;;;;;;4.70;4.20;;;11.90;99.90;;;;;;5032401;28;20195;-75
2022/05/03 01:01:23;;;;;;;5.03;4.53;;;11.80;99.90;;;;;;5032139;28;20644;-76
2022/05/03 01:04:13;;;;;;;4.45;4.10;;;11.70;99.90;;;;;;5033453;28;20266;-75
2022/05/03 01:06:47;;;;;;;5.00;4.50;;;11.60;99.90;;;;;;5033408;28;20241;-75
2022/05/03 01:09:20;;;;;;;5.90;4.10;;;11.70;99.90;;;;;;5032038;28;20241;-76
2022/05/03 01:11:50;;;;;;;4.60;4.20;;;11.70;99.90;;;;;;5047582;28;20164;-75
2022/05/03 01:14:53;;;;;;;6.82;4.53;;;11.80;99.90;;;;;;5031828;28;20176;-76
2022/05/03 01:17:42;;;;;;;5.43;4.53;;;11.80;99.90;;;;;;5033198;28;20191;-75
2022/05/03 01:20:10;;;;;;;5.07;4.47;;;11.80;99.90;;;;;;5033268;28;20613;-75
2022/05/03 01:23:03;;;;;;;4.57;4.18;;;11.60;99.90;;;;;;5033390;28;20168;-76
2022/05/03 01:25:43;;;;;;;7.30;4.50;;;11.50;99.90;;;;;;5033141;28;20249;-76
2022/05/03 01:28:15;;;;;;;4.65;4.20;;;11.30;99.90;;;;;;5033098;28;20164;-75
2022/05/03 01:30:47;;;;;;;6.65;4.53;;;11.30;99.90;;;;;;5033017;28;20183;-75
2022/05/03 01:33:17;;;;;;;5.07;4.65;;;11.20;99.90;;;;;;5033072;28;20494;-76
2022/05/03 01:35:50;;;;;;;7.97;5.53;;;11.20;99.90;;;;;;5033170;28;20266;-75
2022/05/03 01:38:42;;;;;;;9.38;4.32;;;11.20;99.90;;;;;;5032862;28;20208;-78
2022/05/03 01:41:08;;;;;;;6.22;4.75;;;11.10;99.90;;;;;;5032947;28;20620;-76
2022/05/03 01:43:46;;;;;;;5.80;4.78;;;11.20;99.90;;;;;;5033066;28;20180;-76
2022/05/03 01:46:11;;;;;;;4.05;3.75;;;11.20;99.90;;;;;;5032896;28;20237;-77
2022/05/03 01:51:45;;;;;;;5.13;4.68;;;11.40;99.90;;;;;;5033198;28;20183;-76
2022/05/03 01:54:38;;;;;;;5.15;4.32;;;11.40;99.90;;;;;;5032864;28;20167;-76
2022/05/03 01:57:41;;;;;;;4.95;4.53;;;11.40;99.90;;;;;;5032570;28;20544;-76
2022/05/03 02:00:08;;;;;;;8.55;4.63;;;11.30;99.90;;;;;;5032599;28;20199;-76
2022/05/03 02:03:11;;;;;;;9.70;4.70;;;11.30;99.90;;;;;;5032509;28;20167;-76
2022/05/03 02:06:04;;;;;;;5.20;4.72;;;11.20;99.90;;;;;;5032370;28;20254;-76
2022/05/03 02:08:57;;;;;;;5.40;4.80;;;11.00;99.90;;;;;;5032390;28;20223;-76
2022/05/03 02:12:04;;;;;;;6.00;5.50;;;11.10;99.90;;;;;;5032822;28;20171;-76
2022/05/03 02:14:46;;;;;;;12.00;5.13;;;11.10;99.90;;;;;;5031229;28;20275;-75
2022/05/03 02:18:03;;;;;;;5.47;4.47;;;11.00;99.90;;;;;;5047662;28;20620;-75
2022/05/03 02:20:46;;;;;;;5.57;5.07;;;10.90;99.90;;;;;;5009583;28;20191;-76
2022/05/03 02:23:20;;;;;;;8.85;5.28;;;10.90;99.90;;;;;;5033031;28;20176;-75
2022/05/03 02:25:59;;;;;;;9.88;5.78;;;11.00;99.90;;;;;;5036426;28;20187;-78
2022/05/03 02:28:34;;;;;;;6.45;5.80;;;11.10;99.90;;;;;;5036435;28;20194;-80
2022/05/03 02:31:03;;;;;;;11.85;5.97;;;11.00;99.90;;;;;;5037126;28;20198;-76
2022/05/03 02:33:44;;;;;;;6.63;5.20;;;10.90;99.90;;;;;;5052025;28;20164;-76
2022/05/03 02:36:17;;;;;;;5.03;4.53;;;11.00;99.90;;;;;;5051923;28;20203;-78
2022/05/03 02:39:10;;;;;;;5.80;5.20;;;10.90;99.90;;;;;;5036404;28;20242;-87
2022/05/03 02:41:41;;;;;;;6.30;5.80;;;11.10;99.90;;;;;;5034668;28;20179;-76
2022/05/03 02:44:07;;;;;;;6.60;4.85;;;11.00;99.90;;;;;;5036713;28;20160;-81
2022/05/03 02:46:57;;;;;;;5.05;4.43;;;10.90;99.90;;;;;;5036428;28;20694;-85
2022/05/03 02:49:44;;;;;;;6.47;5.78;;;11.10;99.90;;;;;;5036662;28;20207;-85
2022/05/03 02:52:28;;;;;;;6.03;4.95;;;10.90;99.90;;;;;;5036522;28;20172;-79
2022/05/03 02:55:38;;;;;;;7.90;5.10;;;10.80;99.90;;;;;;5036230;28;20237;-84
2022/05/03 02:58:05;;;;;;;5.95;5.35;;;10.80;99.90;;;;;;5020064;28;20191;-76
2022/05/03 03:03:38;;;;;;;5.68;5.15;;;10.70;99.90;;;;;;5035799;28;20186;-84
2022/05/03 03:06:05;;;;;;;5.50;4.97;;;10.60;99.90;;;;;;5036803;28;20200;-83
2022/05/03 03:08:44;;;;;;;7.82;5.55;;;10.50;99.90;;;;;;5035721;28;20206;-80
2022/05/03 03:11:23;;;;;;;6.78;6.07;;;10.60;99.90;;;;;;5035980;28;20159;-77
2022/05/03 03:14:22;;;;;;;6.57;4.63;;;10.60;99.90;;;;;;5036108;28;20520;-79
2022/05/03 03:17:03;;;;;;;8.45;5.95;;;10.50;99.90;;;;;;5035932;28;20529;-85
2022/05/03 03:19:37;;;;;;;7.22;6.00;;;10.50;99.90;;;;;;5035720;28;20164;-76
2022/05/03 03:22:11;;;;;;;5.65;5.15;;;10.40;99.90;;;;;;5035669;28;20172;-76
2022/05/03 03:24:38;;;;;;;5.55;5.05;;;10.40;99.90;;;;;;5035548;28;20699;-77
2022/05/03 03:27:06;;;;;;;6.38;5.75;;;10.20;99.90;;;;;;5035541;28;20174;-76
2022/05/03 03:29:33;;;;;;;6.03;5.47;;;10.20;99.90;;;;;;5035530;28;20210;-76
2022/05/03 03:32:01;;;;;;;13.45;4.93;;;10.30;99.90;;;;;;5035465;28;20160;-76
2022/05/03 03:34:28;;;;;;;4.97;4.53;;;10.40;99.90;;;;;;5035659;28;20175;-78
2022/05/03 03:37:01;;;;;;;10.23;5.28;;;10.30;99.90;;;;;;5035462;28;20168;-77
2022/05/03 03:39:31;;;;;;;5.28;4.70;;;10.40;99.90;;;;;;5035298;28;20193;-82
2022/05/03 03:42:05;;;;;;;5.32;4.82;;;10.40;99.90;;;;;;5036104;28;20171;-82
2022/05/03 03:44:34;;;;;;;7.50;5.53;;;10.40;99.90;;;;;;5050939;28;20175;-81
2022/05/03 03:47:01;;;;;;;5.43;4.93;;;10.60;99.90;;;;;;5034370;28;20161;-78
2022/05/03 03:49:28;;;;;;;5.38;4.88;;;10.70;99.90;;;;;;5035433;28;20202;-78
2022/05/03 03:51:55;;;;;;;8.32;5.07;;;10.60;99.90;;;;;;5035782;28;20524;-77
2022/05/03 03:54:23;;;;;;;7.18;5.40;;;10.60;99.90;;;;;;5034168;28;20176;-81
2022/05/03 03:56:50;;;;;;;7.10;5.03;;;10.40;99.90;;;;;;5035323;28;20538;-79
2022/05/03 03:59:17;;;;;;;7.90;6.72;;;10.40;99.90;;;;;;5035017;28;20176;-76
2022/05/03 04:01:43;;;;;;;5.68;5.18;;;10.50;99.90;;;;;;5035001;28;20180;-76
2022/05/03 04:04:11;;;;;;;6.97;5.15;;;10.40;99.90;;;;;;5035017;28;20682;-82
2022/05/03 04:06:37;;;;;;;5.30;4.80;;;10.40;99.90;;;;;;5034051;28;20274;-76
2022/05/03 04:09:04;;;;;;;6.55;5.03;;;10.20;99.90;;;;;;5035205;28;20675;-83
2022/05/03 04:11:41;;;;;;;10.27;5.22;;;10.10;99.90;;;;;;5035313;28;20168;-79
2022/05/03 04:14:07;;;;;;;5.03;4.53;;;10.20;99.90;;;;;;5016951;28;20175;-79
2022/05/03 04:16:33;;;;;;;6.72;4.70;;;10.20;99.90;;;;;;5034936;28;20274;-76
2022/05/03 04:18:58;;;;;;;5.65;4.85;;;10.30;99.90;;;;;;5034848;28;20168;-82
2022/05/03 04:21:24;;;;;;;8.45;5.88;;;10.20;99.90;;;;;;5034738;28;20167;-87
2022/05/03 04:23:51;;;;;;;11.88;5.38;;;10.30;99.90;;;;;;5035446;28;20663;-81
2022/05/03 04:26:17;;;;;;;6.97;5.57;;;10.30;99.90;;;;;;5034870;28;20200;-77
2022/05/03 04:28:43;;;;;;;7.32;5.40;;;10.20;99.90;;;;;;5035164;28;20195;-79
2022/05/03 04:31:08;;;;;;;11.57;5.50;;;10.30;99.90;;;;;;5034263;28;20536;-76
2022/05/03 04:33:34;;;;;;;8.65;5.72;;;10.30;99.90;;;;;;5034072;28;20636;-79
2022/05/03 04:36:04;;;;;;;9.63;5.80;;;10.30;99.90;;;;;;5034147;28;20238;-77
2022/05/03 04:38:29;;;;;;;6.22;5.05;;;10.30;99.90;;;;;;5034416;28;20589;-76
2022/05/03 04:41:02;;;;;;;8.90;5.07;;;10.20;99.90;;;;;;5034128;28;20167;-76
2022/05/03 04:43:29;;;;;;;8.18;4.97;;;10.40;99.90;;;;;;5034368;28;20176;-81
2022/05/03 04:45:54;;;;;;;7.50;5.85;;;10.50;99.90;;;;;;5032673;28;20197;-76
2022/05/03 04:48:20;;;;;;;10.68;6.25;;;10.60;99.90;;;;;;5034024;28;20196;-76
2022/05/03 04:50:47;;;;;;;6.15;5.38;;;10.70;99.90;;;;;;5033863;28;20194;-75
2022/05/03 04:53:14;;;;;;;6.50;5.53;;;10.70;99.90;;;;;;5033690;28;20160;-76
2022/05/03 04:55:40;;;;;;;9.80;5.32;;;10.80;99.90;;;;;;5033432;28;20245;-76
2022/05/03 04:58:06;;;;;;;7.38;5.82;;;10.90;99.90;;;;;;5033532;28;20691;-76
2022/05/03 05:00:32;;;;;;;8.00;5.60;;;11.00;99.90;;;;;;5032060;28;20191;-77
2022/05/03 05:02:57;;;;;;;10.82;5.53;;;11.00;99.90;;;;;;5033759;28;20170;-76
2022/05/03 05:05:23;;;;;;;15.75;5.20;;;11.00;99.90;;;;;;5033526;28;20196;-76
2022/05/03 05:07:49;;;;;;;31.83;6.45;;;11.10;99.90;;;;;;5033660;28;20625;-84
2022/05/03 05:10:23;;;;;;;30.23;8.23;;;10.90;99.90;;;;;;5033402;28;20211;-76
2022/05/03 05:12:52;;;;;;;27.00;7.13;;;10.70;99.90;;;;;;5033240;28;20254;-76
2022/05/03 05:15:18;;;;;;;10.73;6.03;;;10.90;99.90;;;;;;5048550;28;20202;-80
2022/05/03 05:17:43;;;;;;;10.40;5.45;;;10.90;99.90;;;;;;5033110;28;20176;-78
2022/05/03 05:20:09;;;;;;;6.38;5.78;;;11.10;99.90;;;;;;5033342;28;20178;-76
2022/05/03 05:22:35;;;;;;;13.85;6.75;;;11.20;99.90;;;;;;5033507;28;20207;-76
2022/05/03 05:25:01;;;;;;;13.77;5.90;;;11.10;99.90;;;;;;5033087;28;20215;-77
2022/05/03 05:27:27;;;;;;;6.03;5.28;;;11.10;99.90;;;;;;5033091;28;20621;-76
2022/05/03 05:29:52;;;;;;;14.07;5.95;;;11.30;99.90;;;;;;5032767;28;20210;-76
2022/05/03 05:32:18;;;;;;;6.20;5.60;;;11.40;99.90;;;;;;5033029;28;20203;-76
2022/05/03 05:34:44;;;;;;;14.48;5.80;;;11.50;99.90;;;;;;5048326;28;20199;-76
2022/05/03 05:37:10;;;;;;;12.30;5.60;;;11.60;99.90;;;;;;5032716;28;20532;-76
2022/05/03 05:39:35;;;;;;;7.75;5.22;;;11.50;99.90;;;;;;5032770;28;20172;-76
2022/05/03 05:42:01;;;;;;;7.75;4.75;;;11.60;99.90;;;;;;5032741;28;20193;-76
2022/05/03 05:44:28;;;;;;;4.90;4.47;;;11.70;99.90;;;;;;5031060;28;20194;-76
2022/05/03 05:46:54;;;;;;;8.00;5.38;;;11.70;99.90;;;;;;5032821;28;20816;-78
2022/05/03 05:49:20;;;;;;;8.75;4.93;;;11.40;99.90;;;;;;5033405;28;20294;-77
2022/05/03 05:51:46;;;;;;;11.43;4.38;;;11.30;99.90;;;;;;5033159;28;20175;-79
2022/05/03 05:54:12;;;;;;;11.07;5.63;;;11.30;99.90;;;;;;5033159;28;20566;-78
2022/05/03 05:56:41;;;;;;;6.55;5.10;;;11.50;99.90;;;;;;5032842;28;20194;-77
2022/05/03 05:59:06;;;;;;;12.50;5.47;;;11.80;99.90;;;;;;5031974;28;20194;-80
2022/05/03 06:01:42;;;;;;;8.27;4.90;;;11.80;99.90;;;;;;5033243;28;20183;-87
2022/05/03 06:04:08;;;;;;;6.53;5.45;;;11.80;99.90;;;;;;5033340;28;20254;-81
2022/05/03 06:06:36;;;;;;;9.70;5.55;;;11.70;99.90;;;;;;5032843;28;20215;-77
2022/05/03 06:09:03;;;;;;;5.57;5.07;;;11.70;99.90;;;;;;5033557;28;20211;-76
2022/05/03 06:11:29;;;;;;;7.50;5.22;;;11.60;99.90;;;;;;5036573;28;20184;-79
2022/05/03 06:13:55;;;;;;;8.75;6.00;;;11.80;99.90;;;;;;5033611;28;20211;-85
2022/05/03 06:16:21;;;;;;;7.05;5.15;;;11.90;99.90;;;;;;5033773;28;20435;-79
2022/05/03 06:18:46;;;;;;;9.23;6.13;;;11.80;99.90;;;;;;5036189;28;20212;-80
2022/05/03 06:21:13;;;;;;;31.05;6.80;;;12.20;99.90;;;;;;5035385;28;20255;-83
2022/05/03 06:23:39;;;;;;;7.25;5.05;;;12.30;99.90;;;;;;5033962;28;20172;-75
2022/05/03 06:26:05;;;;;;;14.63;5.13;;;12.40;99.90;;;;;;5032373;28;20195;-79
2022/05/03 06:28:34;;;;;;;6.03;5.43;;;12.50;99.90;;;;;;5032660;28;20200;-82
2022/05/03 06:31:00;;;;;;;5.85;4.47;;;12.40;99.90;;;;;;5032346;28;20226;-75
2022/05/03 06:33:25;;;;;;;6.32;4.97;;;12.50;99.90;;;;;;5032149;28;20199;-80
2022/05/03 06:35:51;;;;;;;6.00;5.00;;;12.80;99.90;;;;;;5032202;28;20683;-77
2022/05/03 06:38:16;;;;;;;9.15;5.97;;;12.80;99.90;;;;;;5032151;28;20168;-75
2022/05/03 06:40:42;;;;;;;5.50;5.00;;;12.60;99.90;;;;;;5031857;28;20298;-81
2022/05/03 06:43:09;;;;;;;4.57;4.18;;;12.50;99.90;;;;;;5032874;28;20626;-87
2022/05/03 06:45:34;;;;;;;8.48;4.85;;;12.60;99.90;;;;;;5030987;28;20607;-87
2022/05/03 06:48:00;;;;;;;6.43;5.47;;;12.80;99.90;;;;;;5032850;28;20168;-79
2022/05/03 06:50:29;;;;;;;7.25;5.22;;;12.80;99.90;;;;;;5032103;28;20282;-75
2022/05/03 06:52:55;;;;;;;5.30;4.60;;;12.80;99.90;;;;;;5031681;28;20612;-75
2022/05/03 06:55:23;;;;;;;6.15;4.68;;;12.60;99.90;;;;;;5032626;28;20196;-87
2022/05/03 06:57:48;;;;;;;6.80;4.72;;;12.80;99.90;;;;;;5033433;28;20169;-81
2022/05/03 07:00:15;;;;;;;4.63;4.22;;;12.90;99.90;;;;;;5026953;28;20243;-84
2022/05/03 07:02:44;;;;;;;9.73;4.65;;;13.00;99.90;;;;;;5012388;28;20185;-87
2022/05/03 07:05:10;;;;;;;4.10;3.33;;;13.00;99.90;;;;;;5014189;28;20258;-82
2022/05/03 07:07:36;;;;;;;4.75;3.60;;;13.20;99.90;;;;;;5012180;28;20180;-83
2022/05/03 07:10:02;;;;;;;8.60;4.53;;;13.30;99.90;;;;;;5016135;28;20290;-76
2022/05/03 07:12:28;;;;;;;6.45;3.92;;;13.20;99.90;;;;;;5023289;28;20172;-76
2022/05/03 07:14:58;;;;;;;7.88;3.28;;;13.50;99.90;;;;;;5019215;28;20199;-84
2022/05/03 07:22:53;;;;;;;6.05;2.95;;;15.40;99.90;;;;;;5021011;28;20323;-78
2022/05/03 07:25:18;;;;;;;4.68;3.17;;;16.10;99.90;;;;;;5020030;28;20291;-78
2022/05/03 07:27:45;;;;;;;5.95;2.80;;;16.10;99.90;;;;;;5019693;28;20576;-86
2022/05/03 07:30:15;;;;;;;6.22;3.08;;;16.30;99.90;;;;;;5017289;28;20208;-84
2022/05/03 07:32:42;;;;;;;9.07;3.47;;;15.90;99.90;;;;;;5051206;28;20176;-89
2022/05/03 07:35:11;;;;;;;9.52;2.97;;;15.20;99.90;;;;;;5022784;28;20196;-77
2022/05/03 07:37:38;;;;;;;6.00;3.80;;;14.50;99.90;;;;;;5018170;28;20168;-79
2022/05/03 07:40:05;;;;;;;5.32;3.40;;;14.20;99.90;;;;;;5016649;28;20183;-76
2022/05/03 07:42:31;;;;;;;9.75;3.97;;;13.90;99.90;;;;;;5016040;28;20552;-86
2022/05/03 07:45:00;;;;;;;4.22;3.28;;;13.70;99.90;;;;;;5024192;28;20195;-74
2022/05/03 07:47:26;;;;;;;11.20;3.72;;;13.80;99.90;;;;;;5053021;28;20182;-75
2022/05/03 07:49:53;;;;;;;4.00;2.90;;;14.10;99.90;;;;;;5051595;28;20603;-75
2022/05/03 07:52:23;;;;;;;3.80;3.22;;;14.00;99.90;;;;;;5037019;28;20168;-84
2022/05/03 07:54:49;;;;;;;12.25;3.45;;;14.00;99.90;;;;;;5031813;28;20259;-75
2022/05/03 07:57:16;;;;;;;15.05;3.30;;;14.00;99.90;;;;;;5026596;28;20168;-80
2022/05/03 07:59:47;;;;;;;4.60;2.92;;;14.00;99.90;;;;;;5041009;28;20190;-74
2022/05/03 08:02:14;;;;;;;7.32;3.65;;;14.20;99.90;;;;;;5046833;28;20164;-76
2022/05/03 08:04:40;;;;;;;10.80;3.08;;;14.40;99.90;;;;;;5047575;28;20199;-75
2022/05/03 08:07:12;;;;;;;7.57;3.55;;;14.50;99.90;;;;;;5044040;28;20172;-81
2022/05/03 08:09:41;;;;;;;3.80;3.38;;;14.50;99.90;;;;;;5046191;28;20214;-75
2022/05/03 08:12:08;;;;;;;8.75;4.00;;;14.60;99.90;;;;;;5046626;28;20167;-74
2022/05/03 08:14:41;;;;;;;4.57;4.15;;;14.90;99.90;;;;;;5045410;28;20184;-81
2022/05/03 08:17:10;;;;;;;7.30;3.38;;;15.00;99.90;;;;;;5046620;28;20160;-74
2022/05/03 08:19:36;;;;;;;8.20;3.67;;;15.00;99.90;;;;;;5046615;28;20231;-75
2022/05/03 08:22:05;;;;;;;8.70;3.88;;;15.00;99.90;;;;;;5043271;28;20179;-77
2022/05/03 08:24:32;;;;;;;11.18;3.72;;;15.00;99.90;;;;;;5044629;28;20568;-84
2022/05/03 08:27:00;;;;;;;6.50;3.17;;;15.20;99.90;;;;;;5043503;28;20168;-77
2022/05/03 08:29:27;;;;;;;4.75;3.08;;;15.50;99.90;;;;;;5042386;28;20253;-84
2022/05/03 08:31:52;;;;;;;6.88;3.60;;;15.60;99.90;;;;;;5040194;28;20164;-82
2022/05/03 08:34:18;;;;;;;15.70;3.30;;;15.60;99.90;;;;;;5036741;28;20680;-86
2022/05/03 08:42:01;;;;;;;13.90;4.15;;;15.60;99.90;;;;;;5035795;28;20199;-82
2022/05/03 08:42:17;;;;;;;7.40;3.63;;;15.70;99.90;;;;;;5039129;28;20210;-91
2022/05/03 08:44:43;;;;;;;10.48;3.75;;;15.70;99.90;;;;;;5036111;28;20175;-81
2022/05/03 08:47:09;;;;;;;8.63;3.55;;;15.50;99.90;;;;;;5037149;28;20647;-85
2022/05/03 08:49:43;;;;;;;6.32;3.70;;;15.40;99.90;;;;;;5036565;28;20207;-90
2022/05/03 08:52:09;;;;;;;3.97;3.40;;;15.40;99.90;;;;;;5030871;28;20251;-86
2022/05/03 08:54:39;;;;;;;6.03;3.42;;;15.40;99.90;;;;;;5038228;28;20183;-78
2022/05/03 08:57:06;;;;;;;16.20;4.18;;;15.60;99.90;;;;;;5041507;28;20180;-85
2022/05/03 08:59:38;;;;;;;3.40;3.10;;;15.60;99.90;;;;;;5027125;28;20177;-78
2022/05/03 09:02:05;;;;;;;6.97;3.53;;;15.80;99.90;;;;;;5036385;28;20203;-81
2022/05/03 09:04:31;;;;;;;12.75;4.05;;;15.80;99.90;;;;;;5015611;28;20173;-84
2022/05/03 09:07:22;;;;;;;7.75;3.72;;;16.10;99.90;;;;;;5035052;28;20204;-82
2022/05/03 09:09:49;;;;;;;6.10;4.38;;;16.10;99.90;;;;;;5040060;28;20211;-85
2022/05/03 09:12:29;;;;;;;8.25;3.45;;;16.20;99.90;;;;;;5044392;28;20167;-81
2022/05/03 09:15:00;;;;;;;4.55;3.55;;;16.30;99.90;;;;;;5041902;28;20779;-80
2022/05/03 09:17:36;;;;;;;4.75;3.00;;;16.10;99.90;;;;;;5043703;28;20749;-79
2022/05/03 09:26:10;;;;;;;3.80;3.17;;;16.20;99.90;;;;;;5026100;28;20258;-77
2022/05/03 09:28:46;;;;;;;12.55;3.25;;;16.40;99.90;;;;;;5024205;28;20735;-86
2022/05/03 09:31:13;;;;;;;5.03;4.03;;;16.50;99.90;;;;;;5034352;28;20511;-83
2022/05/03 09:33:39;;;;;;;4.65;3.42;;;16.60;99.90;;;;;;5036162;28;20198;-86
2022/05/03 09:36:11;;;;;;;8.65;3.75;;;16.80;99.90;;;;;;5035495;28;20188;-88
2022/05/03 09:38:47;;;;;;;4.25;3.00;;;16.90;99.90;;;;;;5030756;28;20173;-87
2022/05/03 09:41:17;;;;;;;11.90;3.83;;;16.90;99.90;;;;;;5014319;28;20168;-85
2022/05/03 09:44:08;;;;;;;4.35;3.58;;;16.90;99.90;;;;;;5013752;28;20259;-86
2022/05/03 09:46:52;;;;;;;3.58;3.25;;;16.90;99.90;;;;;;5031215;28;20180;-86
2022/05/03 09:49:20;;;;;;;4.53;3.83;;;17.00;99.90;;;;;;5014769;28;20279;-89
2022/05/03 09:51:48;;;;;;;4.25;3.85;;;16.90;99.90;;;;;;5014965;28;20164;-85
2022/05/03 09:54:14;;;;;;;6.35;3.85;;;17.00;99.90;;;;;;5017641;28;20536;-85
2022/05/03 09:56:41;;;;;;;4.93;3.70;;;17.00;99.90;;;;;;5014913;28;20185;-87
2022/05/03 09:59:08;;;;;;;7.68;4.25;;;17.20;99.90;;;;;;5015507;28;20172;-85
2022/05/03 10:01:35;;;;;;;4.00;3.63;;;17.30;99.90;;;;;;5014948;28;20200;-86
2022/05/03 10:04:01;;;;;;;7.40;3.95;;;17.40;99.90;;;;;;5036482;28;20180;-90
2022/05/03 10:06:29;;;;;;;3.78;3.47;;;17.30;99.90;;;;;;5049231;28;20202;-85
2022/05/03 10:08:55;;;;;;;7.65;3.80;;;17.40;99.90;;;;;;5033383;28;20199;-84
2022/05/03 10:11:26;;;;;;;4.32;3.50;;;17.50;99.90;;;;;;5048918;28;20180;-85
2022/05/03 10:13:55;;;;;;;3.92;3.55;;;17.40;99.90;;;;;;5032308;28;20176;-85
2022/05/03 10:22:01;;;;;;;3.60;3.25;;;17.10;99.90;;;;;;5033389;28;20259;-86
2022/05/03 10:24:28;;;;;;;8.57;3.22;;;17.20;99.90;;;;;;5031724;28;20624;-88
2022/05/03 10:27:05;;;;;;;4.35;3.97;;;17.50;99.90;;;;;;5048676;28;20258;-87
2022/05/03 10:29:36;;;;;;;5.25;4.15;;;17.30;99.90;;;;;;5048308;28;20775;-85
2022/05/03 10:32:14;;;;;;;8.07;3.50;;;17.30;99.90;;;;;;5032846;28;20168;-87
2022/05/03 10:34:40;;;;;;;5.30;4.70;;;17.40;99.90;;;;;;5048526;28;20172;-88
2022/05/03 10:37:17;;;;;;;6.13;3.97;;;17.60;99.90;;;;;;5031921;28;20604;-86
2022/05/03 10:39:51;;;;;;;8.00;4.22;;;17.70;99.90;;;;;;5047778;28;20194;-86
2022/05/03 10:42:20;;;;;;;5.13;4.65;;;17.80;99.90;;;;;;5031205;28;20175;-93
2022/05/03 10:44:57;;;;;;;6.10;4.95;;;17.80;99.90;;;;;;5034688;28;20191;-86
2022/05/03 10:47:47;;;;;;;5.22;4.72;;;17.80;99.90;;;;;;5048219;28;20629;-87
2022/05/03 10:50:15;;;;;;;4.15;3.75;;;17.90;99.90;;;;;;5031950;28;20208;-84
2022/05/03 10:52:55;;;;;;;12.10;4.13;;;17.90;99.90;;;;;;5016183;28;20245;-87
2022/05/03 10:55:22;;;;;;;12.35;4.15;;;18.00;99.90;;;;;;5016100;28;20557;-87
2022/05/03 10:58:19;;;;;;;4.28;3.88;;;17.90;99.90;;;;;;5050709;28;20171;-87
2022/05/03 11:01:08;;;;;;;4.60;3.42;;;17.60;99.90;;;;;;5052447;28;20194;-87
2022/05/03 11:03:36;;;;;;;5.50;3.75;;;17.60;99.90;;;;;;5052518;28;20172;-87
2022/05/03 11:06:18;;;;;;;7.13;3.88;;;17.90;99.90;;;;;;5051890;28;20210;-82
2022/05/03 11:11:54;;;;;;;4.93;4.13;;;18.10;99.90;;;;;;5037779;28;20194;-87
2022/05/03 11:14:24;;;;;;;5.35;4.85;;;18.40;99.90;;;;;;5035681;28;20183;-88
2022/05/03 11:17:02;;;;;;;5.28;4.68;;;18.40;99.90;;;;;;5036821;28;20222;-86
2022/05/03 11:19:29;;;;;;;8.88;4.20;;;18.70;99.90;;;;;;5037977;28;20167;-81
2022/05/03 11:21:56;;;;;;;4.55;4.15;;;18.90;99.90;;;;;;5055736;28;20195;-82
2022/05/03 11:24:29;;;;;;;15.43;4.38;;;19.00;99.90;;;;;;5056462;28;20172;-83
2022/05/03 11:27:01;;;;;;;5.90;4.03;;;19.20;99.90;;;;;;5040763;28;20164;-81
2022/05/03 11:29:28;;;;;;;6.97;4.85;;;19.10;99.90;;;;;;5039632;28;20541;-81
2022/05/03 11:31:54;;;;;;;27.27;5.18;;;19.00;99.90;;;;;;5055234;28;20172;-84
2022/05/03 11:34:20;;;;;;;4.93;4.50;;;19.00;99.90;;;;;;5041203;28;20640;-81
2022/05/03 11:36:49;;;;;;;4.90;4.50;;;18.80;99.90;;;;;;5055913;28;20192;-81
2022/05/03 11:39:16;;;;;;;7.50;4.68;;;18.60;99.90;;;;;;5055100;28;20624;-82
2022/05/03 11:41:42;;;;;;;4.90;4.40;;;18.90;99.90;;;;;;5053546;28;20168;-81
2022/05/03 11:44:09;;;;;;;5.32;4.15;;;19.30;99.90;;;;;;5052235;28;20179;-83
2022/05/03 11:46:37;;;;;;;6.00;4.03;;;19.40;99.90;;;;;;5036970;28;20187;-82
2022/05/03 11:49:04;;;;;;;4.25;3.85;;;19.60;99.90;;;;;;5039132;28;20583;-82
2022/05/03 11:57:25;;;;;;;5.05;3.97;;;18.80;99.90;;;;;;5036470;28;20202;-81
2022/05/03 11:59:57;;;;;;;7.20;3.78;;;18.70;99.90;;;;;;5053179;28;20164;-79
2022/05/03 12:02:44;;;;;;;8.18;3.85;;;19.00;99.90;;;;;;5056289;28;20191;-80
2022/05/03 12:05:20;;;;;;;4.30;3.97;;;19.30;99.90;;;;;;5041319;28;20214;-84
2022/05/03 12:07:54;;;;;;;11.27;4.43;;;19.20;99.90;;;;;;5054782;28;20628;-80
2022/05/03 12:10:33;;;;;;;16.00;4.95;;;19.40;99.90;;;;;;5055577;28;20210;-80
2022/05/03 12:13:13;;;;;;;16.52;5.18;;;19.40;99.90;;;;;;5058402;28;20632;-82
2022/05/03 12:15:45;;;;;;;6.15;4.03;;;19.70;99.90;;;;;;5044281;28;20215;-80
2022/05/03 12:18:20;;;;;;;3.20;2.90;;;19.80;99.90;;;;;;5058360;28;20263;-78
2022/05/03 12:20:57;;;;;;;6.10;3.83;;;19.50;99.90;;;;;;5036032;28;20209;-78
2022/05/03 12:23:35;;;;;;;4.07;3.55;;;19.20;99.90;;;;;;5034770;28;20171;-78
2022/05/03 12:26:16;;;;;;;4.20;3.55;;;19.10;99.90;;;;;;5035760;28;20215;-78
2022/05/03 12:28:45;;;;;;;8.15;3.15;;;18.80;99.90;;;;;;5033897;28;20245;-78
2022/05/03 12:31:13;;;;;;;4.18;3.72;;;18.70;99.90;;;;;;5051397;28;20179;-78
2022/05/03 12:33:43;;;;;;;3.88;3.58;;;19.00;99.90;;;;;;5051118;28;20616;-79
2022/05/03 12:36:09;;;;;;;7.30;4.60;;;19.30;99.90;;;;;;5035218;28;20238;-79
2022/05/03 12:38:47;;;;;;;7.68;5.32;;;19.80;99.90;;;;;;5035485;28;20199;-78
2022/05/03 12:41:29;;;;;;;16.73;5.03;;;19.60;99.90;;;;;;5034910;28;20175;-78
2022/05/03 12:44:09;;;;;;;11.00;4.78;;;19.50;99.90;;;;;;5035008;28;20171;-79
2022/05/03 12:46:36;;;;;;;10.85;5.18;;;19.60;99.90;;;;;;5034323;28;20611;-77
2022/05/03 12:49:06;;;;;;;6.60;5.32;;;19.40;99.90;;;;;;5034989;28;20199;-79
2022/05/03 12:51:32;;;;;;;5.82;5.32;;;19.40;99.90;;;;;;5033417;28;20641;-78
2022/05/03 12:54:05;;;;;;;11.20;4.82;;;19.20;99.90;;;;;;5035036;28;20198;-78
2022/05/03 12:59:16;;;;;;;13.65;5.10;;;19.50;99.90;;;;;;5034896;28;20245;-79
2022/05/03 13:01:44;;;;;;;8.32;5.22;;;19.40;99.90;;;;;;5034002;28;20176;-80
2022/05/03 13:04:10;;;;;;;7.63;6.55;;;19.30;99.90;;;;;;5035050;28;20175;-86
2022/05/03 13:06:36;;;;;;;7.22;5.75;;;19.30;99.90;;;;;;5053648;28;20199;-85
2022/05/03 13:09:03;;;;;;;6.43;5.82;;;19.20;99.90;;;;;;5050153;28;20222;-84
2022/05/03 13:11:30;;;;;;;15.15;7.13;;;19.30;99.90;;;;;;5049258;28;20620;-82
2022/05/03 13:13:56;;;;;;;17.25;6.90;;;19.30;99.90;;;;;;5049489;28;20175;-81
2022/05/03 13:16:21;;;;;;;11.07;7.05;;;19.40;99.90;;;;;;5049247;28;20195;-81
2022/05/03 13:18:47;;;;;;;9.98;7.00;;;19.40;99.90;;;;;;5033929;28;20613;-81
2022/05/03 13:21:13;;;;;;;12.68;6.78;;;19.30;99.90;;;;;;5034063;28;20176;-81
2022/05/03 13:23:39;;;;;;;10.15;6.30;;;19.30;99.90;;;;;;5048990;28;20171;-81
2022/05/03 13:26:04;;;;;;;10.88;6.38;;;19.30;99.90;;;;;;5049491;28;20184;-81
2022/05/03 13:28:30;;;;;;;7.38;5.97;;;19.30;99.90;;;;;;5048830;28;20171;-81
2022/05/03 13:30:56;;;;;;;11.15;6.60;;;19.40;99.90;;;;;;5048725;28;20172;-81
2022/05/03 13:33:22;;;;;;;10.32;6.88;;;19.50;99.90;;;;;;5048603;28;20253;-80
2022/05/03 13:41:17;;;;;;;6.20;5.38;;;19.30;99.90;;;;;;5033438;28;20230;-81
2022/05/03 13:43:43;;;;;;;5.82;5.22;;;19.20;99.90;;;;;;5033612;28;20159;-81
2022/05/03 13:46:08;;;;;;;6.28;5.75;;;19.20;99.90;;;;;;5048572;28;20214;-81
2022/05/03 13:48:34;;;;;;;12.00;5.32;;;19.10;99.90;;;;;;5033040;28;20659;-81
2022/05/03 13:51:00;;;;;;;11.77;6.25;;;19.20;99.90;;;;;;5033523;28;20214;-81